This is the latest recevied weather packets stored in our database for station/object EPGD. If no packets are shown the sender has not sent any weather packets the latest 10 day(s).
| Time | Temp. | Humidity | Pressure | Rain* | Wind** | Luminosity | Snow |
|---|---|---|---|---|---|---|---|
| 1777674904 | 11.67° C | 40% | 1024 hPa | - | - | - | - |
| 1777673104 | 11.67° C | 40% | 1024 hPa | - | - | - | - |
| 1777671304 | 12.78° C | 37% | 1024 hPa | - | - | - | - |
| 1777669504 | 12.78° C | 40% | 1024 hPa | - | - | - | - |
| 1777667704 | 12.78° C | 43% | 1024 hPa | - | - | - | - |
| 1777665904 | 13.89° C | 38% | 1024 hPa | - | - | - | - |
| 1777664104 | 15° C | 35% | 1024 hPa | - | - | - | - |
| 1777662304 | 15.56° C | 36% | 1025 hPa | - | - | - | - |
| 1777660503 | 15.56° C | 38% | 1024 hPa | - | - | - | - |
| 1777658704 | 16.67° C | 39% | 1024 hPa | - | - | - | - |
| 1777656904 | 18.89° C | 34% | 1024 hPa | - | - | - | - |
| 1777655104 | 17.78° C | 42% | 1024 hPa | - | - | - | - |
| 1777653304 | 18.89° C | 39% | 1024 hPa | - | - | - | - |
| 1777651504 | 18.89° C | 42% | 1024 hPa | - | - | - | - |
| 1777649704 | 18.89° C | 37% | 1025 hPa | - | - | - | - |
| 1777647904 | 18.89° C | 39% | 1025 hPa | - | - | - | - |
| 1777646104 | 18.89° C | 39% | 1025 hPa | - | - | - | - |
| 1777644304 | 17.78° C | 42% | 1025 hPa | - | - | - | - |
| 1777642504 | 17.78° C | 42% | 1025 hPa | - | - | - | - |
| 1777640704 | 18.89° C | 39% | 1026 hPa | - | - | - | - |
| 1777638904 | 18.89° C | 37% | 1026 hPa | - | - | - | - |
| 1777637104 | 20° C | 34% | 1026 hPa | - | - | - | - |
| 1777635304 | 20° C | 37% | 1026 hPa | - | - | - | - |
| 1777633504 | 20.56° C | 32% | 1026 hPa | - | - | - | - |
| 1777631704 | 20° C | 30% | 1026 hPa | - | - | - | - |
* Rain since midnight (hover to see other rain measurements)
** Current wind speed in m/s (hover to see current wind gust speed)